Simmons, Missouri
Current Conditions -  °F | °C
As of 9:53 AM on Friday 31 Oct 2014 (Local Time) from KUNO Reporting Station
Overcast Overcast  
Wind Chill:   Ceiling: 2200
Heat Index:   Visibility: 10mi
Dew Point:   Wind: 12mph
Humidity: 71%   Direction: 360°N
Pressure: 30.24"   Gusts: 20mph
Location:  37.3091°N, 91.9516°W
Report Text: KUNO 311453Z AUTO 36010G17KT 10SM OVC022 08/03 A3024 RMK AO2 SLP243 T00830033 51024
Loading
Personal Weather Stations






























Interactive Weather Map
Tropical Storm Tracking
New forecast layout! Learn more

10-Day Weather Forecast

Advertisements
Track Severe Weather on mobile